FW8574 Weather Reports


Display with metric or nautical units.
time (UTC)temp
F
wind
direction
speed
MPH
gust
MPH
rain 1hr
in
rain 24hr
in
rain mn
in
humidity
%
barometer
mb
20210619143028 78 206 1.0 0.0 0.00 0.00 0.00 23 998.4
20210619141626 78 150 2.0 0.0 0.00 0.00 0.00 24 997.9
20210619140124 80 144 3.0 0.0 0.00 0.00 0.00 19 997.1
20210619134554 77 147 2.0 0.0 0.00 0.00 0.00 22 998.0
20210619133204 76 271 0.0 0.0 0.00 0.00 0.00 28 998.6
20210619131544 76 256 1.0 0.0 0.00 0.00 0.00 25 998.1
20210619130138 76 233 1.0 0.0 0.00 0.00 0.00 25 998.1
20210619124559 76 141 1.0 0.0 0.00 0.00 0.00 26 997.8
20210619123010 75 270 0.0 0.0 0.00 0.00 0.00 28 998.1
20210619121622 76 270 0.0 0.0 0.00 0.00 0.00 26 998.3
20210619120038 76 144 1.0 0.0 0.00 0.00 0.00 26 998.3
20210619114504 76 34 0.0 0.0 0.00 0.00 0.00 27 997.3
20210619113056 77 326 1.0 0.0 0.00 0.00 0.00 25 997.2
20210619111522 78 271 0.0 0.0 0.00 0.00 0.00 22 997.0
20210619110208 78 272 1.0 0.0 0.00 0.00 0.00 21 996.4
20210619104550 79 267 1.0 0.0 0.00 0.00 0.00 20 996.5
20210619103012 80 264 0.0 0.0 0.00 0.00 0.00 20 996.2
20210619101611 82 265 1.0 0.0 0.00 0.00 0.00 18 995.5
20210619100041 80 72 2.0 0.0 0.00 0.00 0.00 22 996.5
20210619094632 79 251 0.0 0.0 0.00 0.00 0.00 22 996.4
20210619094520 79 251 0.0 0.0 0.00 0.00 0.00 22 996.4
20210619093047 79 243 0.0 0.0 0.00 0.00 0.00 21 996.4
20210619091606 81 222 0.0 0.0 0.00 0.00 0.00 20 996.5
20210619090146 82 220 0.0 0.0 0.00 0.00 0.00 17 996.0
20210619084557 84 244 1.0 0.0 0.00 0.00 0.00 15 995.7
20210619083038 86 143 2.0 0.0 0.00 0.00 0.00 13 995.7
20210619081625 83 281 3.0 0.0 0.00 0.00 0.00 14 997.2
20210619080027 79 227 0.0 0.0 0.00 0.00 0.00 21 997.4
20210619074708 80 227 0.0 0.0 0.00 0.00 0.00 21 997.0
20210619074501 80 227 0.0 0.0 0.00 0.00 0.00 20 997.0
20210619073058 80 226 1.0 0.0 0.00 0.00 0.00 20 996.5
20210619071519 81 342 0.0 0.0 0.00 0.00 0.00 19 996.4
20210619070122 81 342 0.0 0.0 0.00 0.00 0.00 18 996.9
20210619064639 82 281 0.0 0.0 0.00 0.00 0.00 18 996.8
20210619063015 81 281 1.0 0.0 0.00 0.00 0.00 18 997.4
20210619061646 82 61 1.0 0.0 0.00 0.00 0.00 19 997.2
20210619060054 82 59 1.0 0.0 0.00 0.00 0.00 19 997.5
20210619054621 82 58 0.0 0.0 0.00 0.00 0.00 20 997.0
20210619053049 83 58 0.0 0.0 0.00 0.00 0.00 18 997.3
20210619051513 83 58 1.0 0.0 0.00 0.00 0.00 17 997.3
20210619050121 84 58 0.0 0.0 0.00 0.00 0.00 17 997.5
20210619044603 84 45 0.0 0.0 0.00 0.00 0.00 16 997.5
20210619043006 85 287 0.0 0.0 0.00 0.00 0.00 15 997.2
20210619041552 86 287 0.0 0.0 0.00 0.00 0.00 14 997.1
20210619040039 86 287 0.0 0.0 0.00 0.00 0.00 14 997.5
20210619034701 86 285 2.0 0.0 0.00 0.00 0.00 14 997.2
20210619033106 86 281 2.0 0.0 0.00 0.00 0.00 15 997.2
20210619031542 87 309 2.0 0.0 0.00 0.00 0.00 15 996.8
20210619030114 88 309 0.0 0.0 0.00 0.00 0.00 16 996.7
20210619024538 89 309 0.0 0.0 0.00 0.00 0.00 16 996.4
20210619023005 90 309 0.0 0.0 0.00 0.00 0.00 13 996.2
20210619021625 91 309 0.0 0.0 0.00 0.00 0.00 14 996.0
20210619020035 91 309 1.0 0.0 0.00 0.00 0.00 13 996.0
20210619014645 92 309 1.0 0.0 0.00 0.00 0.00 11 995.9
20210619013058 93 287 2.0 0.0 0.00 0.00 0.00 13 995.8
20210619011512 93 357 2.0 0.0 0.00 0.00 0.00 12 995.7
20210619010209 94 0 2.0 0.0 0.00 0.00 0.00 11 996.6
20210619004547 95 352 3.0 0.0 0.00 0.00 0.00 11 996.2
20210619003010 95 0 2.0 0.0 0.00 0.00 0.00 12 996.4
20210619001553 94 330 2.0 0.0 0.00 0.00 0.00 12 996.6
20210619000032 94 309 2.0 0.0 0.00 0.00 0.00 12 996.7
20210618234931 96 311 3.0 0.0 0.00 0.00 0.00 10 996.5
20210618233120 96 326 2.0 0.0 0.00 0.00 0.00 9 996.6
20210618231516 98 352 2.0 0.0 0.00 0.00 0.00 8 996.5
20210618230146 97 330 2.0 0.0 0.00 0.00 0.00 9 996.4
20210618224552 97 337 2.0 0.0 0.00 0.00 0.00 9 996.4
20210618223019 97 282 2.0 0.0 0.00 0.00 0.00 10 996.8
20210618221618 97 3 2.0 0.0 0.00 0.00 0.00 10 997.1
20210618220045 96 287 2.0 0.0 0.00 0.00 0.00 8 997.0
20210618214721 96 58 2.0 0.0 0.00 0.00 0.00 8 997.1
20210618213125 98 16 1.0 0.0 0.00 0.00 0.00 7 996.9
20210618211513 96 316 2.0 0.0 0.00 0.00 0.00 7 997.5
20210618210141 96 299 2.0 0.0 0.00 0.00 0.00 8 997.7
20210618204545 94 18 2.0 0.0 0.00 0.00 0.00 8 997.9
20210618203012 94 352 2.0 0.0 0.00 0.00 0.00 9 998.2
20210618201552 93 37 1.0 0.0 0.00 0.00 0.00 11 998.5
20210618200102 91 85 1.0 0.0 0.00 0.00 0.00 12 998.9
20210618194724 91 25 1.0 0.0 0.00 0.00 0.00 13 999.3
20210618193132 90 72 2.0 0.0 0.00 0.00 0.00 14 999.9
20210618191513 90 42 2.0 0.0 0.00 0.00 0.00 15 1000.1
20210618190118 89 66 2.0 0.0 0.00 0.00 0.00 15 1000.3
20210618184559 88 313 2.0 0.0 0.00 0.00 0.00 16 1000.7
20210618183157 87 291 2.0 0.0 0.00 0.00 0.00 17 1001.4
20210618181554 86 357 2.0 0.0 0.00 0.00 0.00 19 1001.2
20210618180033 85 357 2.0 0.0 0.00 0.00 0.00 19 1001.4
20210618174656 84 34 2.0 0.0 0.00 0.00 0.00 20 1001.7
20210618173045 83 6 2.0 0.0 0.00 0.00 0.00 21 1002.4
20210618171526 82 49 2.0 0.0 0.00 0.00 0.00 20 1002.1
20210618170142 82 342 2.0 0.0 0.00 0.00 0.00 22 1001.8
20210618164527 81 359 1.0 0.0 0.00 0.00 0.00 22 1002.1
20210618163245 81 66 1.0 0.0 0.00 0.00 0.00 24 1002.3
20210618161544 78 51 2.0 0.0 0.00 0.00 0.00 27 1002.6
20210618160013 76 64 1.0 0.0 0.00 0.00 0.00 25 1002.5
20210618154654 75 150 2.0 0.0 0.00 0.00 0.00 26 1002.9
20210618153058 76 333 0.0 0.0 0.00 0.00 0.00 26 1002.8
20210618151507 76 333 1.0 0.0 0.00 0.00 0.00 25 1003.2
20210618150112 75 44 0.0 0.0 0.00 0.00 0.00 26 1002.3
20210618144557 74 357 0.0 0.0 0.00 0.00 0.00 27 1002.2